Time;durP1;ratioP1;P1;durP2;ratioP2;P2;SDS_P1;SDS_P2;PMS_P1;PMS_P2;Temp;Humidity;BMP_temperature;BMP_pressure;BME280_temperature;BME280_humidity;BME280_pressure;Samples;Min_cycle;Max_cycle;Signal;HPM_P1;HPM_P2
2023/06/23 00:01:20;;;;;;;5.07;2.88;;;;;;;;;;4988548;28;20030;-75
2023/06/23 00:03:46;;;;;;;4.32;2.83;;;;;;;;;;4987998;28;20048;-75
2023/06/23 00:06:12;;;;;;;6.40;2.95;;;;;;;;;;4988506;28;20034;-75
2023/06/23 00:08:41;;;;;;;6.05;2.88;;;16.20;99.90;;;;;;4988308;28;20034;-74
2023/06/23 00:11:07;;;;;;;4.35;2.97;;;;;;;;;;4991082;28;20065;-74
2023/06/23 00:13:34;;;;;;;4.85;2.90;;;;;;;;;;4985715;28;20443;-74
2023/06/23 00:16:04;;;;;;;5.25;3.10;;;15.90;99.90;;;;;;4987446;28;20022;-74
2023/06/23 00:18:30;;;;;;;8.23;2.38;;;;;;;;;;4991842;28;20065;-75
2023/06/23 00:20:56;;;;;;;3.75;2.53;;;;;;;;;;4991685;28;20058;-75
2023/06/23 00:23:22;;;;;;;4.38;2.53;;;;;;;;;;4991486;28;20034;-74
2023/06/23 00:25:48;;;;;;;7.80;2.88;;;;;;;;;;4986511;28;20038;-75
2023/06/23 00:28:14;;;;;;;9.65;3.15;;;;;;;;;;4984660;28;20057;-75
2023/06/23 00:30:40;;;;;;;6.72;2.88;;;;;;;;;;4990419;28;20484;-75
2023/06/23 00:33:06;;;;;;;4.90;2.45;;;;;;;;;;4990536;28;20065;-75
2023/06/23 00:35:32;;;;;;;8.38;3.28;;;;;;;;;;4991148;28;20034;-74
2023/06/23 00:37:58;;;;;;;5.90;3.28;;;;;;;;;;4991439;28;20073;-75
2023/06/23 00:40:24;;;;;;;6.75;2.33;;;;;;;;;;4991263;28;20494;-74
2023/06/23 00:42:54;;;;;;;5.57;2.75;;;15.70;99.90;;;;;;4991238;28;20161;-75
2023/06/23 00:45:21;;;;;;;4.22;2.92;;;15.90;99.90;;;;;;4991466;28;20056;-75
2023/06/23 00:47:47;;;;;;;4.07;2.40;;;;;;;;;;4991035;28;20037;-75
2023/06/23 00:50:18;;;;;;;4.22;3.13;;;16.10;99.90;;;;;;4991108;28;20027;-75
2023/06/23 00:52:49;;;;;;;3.83;2.65;;;16.00;99.90;;;;;;4991188;28;20030;-75
2023/06/23 00:55:20;;;;;;;5.35;2.90;;;16.20;99.90;;;;;;4991196;28;20074;-75
2023/06/23 00:57:46;;;;;;;5.60;2.72;;;;;;;;;;4990976;28;20038;-74
2023/06/23 01:00:18;;;;;;;5.32;3.08;;;16.30;99.90;;;;;;4990290;28;20071;-75
2023/06/23 01:02:45;;;;;;;8.68;3.08;;;15.00;99.90;;;;;;4990693;28;20030;-75
2023/06/23 01:05:11;;;;;;;11.63;2.67;;;;;;;;;;4990966;28;20117;-74
2023/06/23 01:08:08;;;;;;;5.13;2.83;;;16.20;99.90;;;;;;4990714;28;20037;-75
2023/06/23 01:10:42;;;;;;;4.22;2.50;;;16.00;99.90;;;;;;4990296;28;20542;-74
2023/06/23 01:13:08;;;;;;;6.72;3.17;;;;;;;;;;4974465;28;20033;-75
2023/06/23 01:15:41;;;;;;;5.97;2.78;;;15.90;99.90;;;;;;4991234;28;20026;-75
2023/06/23 01:18:15;;;;;;;5.35;2.97;;;16.00;99.90;;;;;;4990783;28;20084;-75
2023/06/23 01:20:44;;;;;;;7.18;3.13;;;16.00;99.90;;;;;;4990549;28;20030;-75
2023/06/23 01:23:33;;;;;;;5.00;3.38;;;15.90;99.90;;;;;;4989396;28;20574;-74
2023/06/23 01:26:09;;;;;;;4.45;2.90;;;16.00;99.90;;;;;;4990778;28;20042;-75
2023/06/23 01:28:44;;;;;;;4.78;2.58;;;15.70;99.90;;;;;;4978587;28;20014;-74
2023/06/23 01:31:14;;;;;;;16.15;4.78;;;15.70;99.90;;;;;;4990367;28;20038;-75
2023/06/23 01:33:48;;;;;;;7.78;2.75;;;15.60;99.90;;;;;;4989731;28;20058;-75
2023/06/23 01:36:21;;;;;;;13.73;3.20;;;15.50;99.90;;;;;;4988947;28;20046;-75
2023/06/23 01:38:50;;;;;;;9.13;3.30;;;15.30;99.90;;;;;;4990359;28;20523;-74
2023/06/23 01:41:28;;;;;;;3.78;2.22;;;15.30;99.90;;;;;;4990178;28;20033;-75
2023/06/23 01:43:56;;;;;;;4.35;2.67;;;15.20;99.90;;;;;;4990120;28;20054;-75
2023/06/23 01:46:27;;;;;;;4.45;3.00;;;15.20;99.90;;;;;;4989793;28;20114;-74
2023/06/23 01:48:57;;;;;;;13.60;3.50;;;15.40;99.90;;;;;;4990021;28;20074;-75
2023/06/23 01:51:26;;;;;;;7.57;3.13;;;15.20;99.90;;;;;;4977539;28;20612;-74
2023/06/23 01:53:54;;;;;;;6.82;3.35;;;15.30;99.90;;;;;;4989622;28;20708;-75
2023/06/23 01:56:21;;;;;;;4.63;2.75;;;15.50;99.90;;;;;;4990237;28;20026;-75
2023/06/23 01:58:49;;;;;;;8.77;2.30;;;15.70;99.90;;;;;;4989577;28;20525;-74
2023/06/23 02:01:15;;;;;;;5.53;3.08;;;15.60;99.90;;;;;;4990134;28;20138;-75
2023/06/23 02:03:41;;;;;;;6.67;3.60;;;15.70;99.90;;;;;;4989357;28;20100;-75
2023/06/23 02:06:09;;;;;;;7.03;2.85;;;15.70;99.90;;;;;;4989991;28;20633;-75
2023/06/23 02:08:36;;;;;;;6.80;2.80;;;15.80;99.90;;;;;;4989255;28;20039;-75
2023/06/23 02:11:03;;;;;;;4.47;2.90;;;;;;;;;;4990048;28;20050;-75
2023/06/23 02:13:29;;;;;;;4.28;2.80;;;16.00;99.90;;;;;;4988279;28;20503;-74
2023/06/23 02:15:56;;;;;;;4.93;2.58;;;15.80;99.90;;;;;;4989735;28;20024;-74
2023/06/23 02:18:23;;;;;;;3.20;2.80;;;16.00;99.90;;;;;;4989571;28;20764;-75
2023/06/23 02:20:51;;;;;;;4.80;3.08;;;16.00;99.90;;;;;;4990145;28;20057;-75
2023/06/23 02:23:18;;;;;;;3.97;2.33;;;16.00;99.90;;;;;;4989172;28;20034;-75
2023/06/23 02:25:45;;;;;;;4.55;2.83;;;;;;;;;;4989121;28;20077;-74
2023/06/23 02:28:11;;;;;;;4.07;2.47;;;16.00;99.90;;;;;;4987975;28;20042;-75
2023/06/23 02:30:39;;;;;;;12.30;3.00;;;16.00;99.90;;;;;;4989877;28;20028;-74
2023/06/23 02:33:05;;;;;;;3.92;2.55;;;;;;;;;;4986989;28;20552;-74
2023/06/23 02:35:33;;;;;;;7.80;2.53;;;15.70;99.90;;;;;;4989922;28;20062;-74
2023/06/23 02:37:59;;;;;;;;;;;15.70;99.90;;;;;;4989609;28;20033;-74
2023/06/23 02:40:29;;;;;;;3.33;2.17;;;15.50;99.90;;;;;;4989436;28;19944;-75
2023/06/23 02:43:09;;;;;;;10.25;3.30;;;15.50;99.90;;;;;;4989264;28;20153;-74
2023/06/23 02:45:39;;;;;;;7.07;2.63;;;15.40;99.90;;;;;;4989181;28;20605;-75
2023/06/23 02:48:14;;;;;;;4.43;2.75;;;15.10;99.90;;;;;;4989052;28;20062;-74
2023/06/23 02:50:41;;;;;;;5.13;3.00;;;15.30;99.90;;;;;;4989200;28;20522;-75
2023/06/23 02:53:13;;;;;;;5.27;2.97;;;15.50;99.90;;;;;;4989106;28;20033;-74
2023/06/23 02:55:42;;;;;;;6.93;2.67;;;15.10;99.90;;;;;;4988923;28;20258;-74
2023/06/23 02:58:11;;;;;;;4.63;2.83;;;15.00;99.90;;;;;;4989513;28;20033;-74
2023/06/23 03:00:37;;;;;;;3.78;2.47;;;;;;;;;;4988927;28;20806;-75
2023/06/23 03:03:06;;;;;;;12.68;3.33;;;14.90;99.90;;;;;;4989137;28;20026;-74
2023/06/23 03:05:32;;;;;;;8.77;3.42;;;14.90;99.90;;;;;;4988866;28;20039;-75
2023/06/23 03:08:00;;;;;;;8.73;3.13;;;14.90;99.90;;;;;;4989149;28;20030;-74
2023/06/23 03:10:28;;;;;;;7.20;3.08;;;;;;;;;;4989203;28;20045;-75
2023/06/23 03:12:54;;;;;;;6.07;3.47;;;;;;;;;;4989373;28;20104;-75
2023/06/23 03:15:20;;;;;;;4.60;3.60;;;;;;;;;;4985721;28;20027;-74
2023/06/23 03:17:48;;;;;;;7.35;3.00;;;15.00;99.90;;;;;;4980056;28;20087;-74
2023/06/23 03:20:25;;;;;;;3.67;2.67;;;15.10;99.90;;;;;;4988715;28;20065;-74
2023/06/23 03:23:13;;;;;;;7.10;2.58;;;15.20;99.90;;;;;;4988936;28;20076;-74
2023/06/23 03:25:40;;;;;;;;;;;15.10;99.90;;;;;;4989432;28;20022;-74
2023/06/23 03:28:09;;;;;;;4.40;2.75;;;15.10;99.90;;;;;;4988564;28;19956;-75
2023/06/23 03:30:47;;;;;;;9.13;3.97;;;15.10;99.90;;;;;;4988806;28;20041;-75
2023/06/23 03:33:18;;;;;;;9.13;4.03;;;15.10;99.90;;;;;;4987938;28;20543;-75
2023/06/23 03:35:46;;;;;;;6.45;3.45;;;15.20;99.90;;;;;;4988749;28;20084;-74
2023/06/23 03:38:17;;;;;;;6.70;3.40;;;15.30;99.90;;;;;;4988703;28;20076;-74
2023/06/23 03:40:48;;;;;;;8.60;3.50;;;15.40;99.90;;;;;;4988645;28;20037;-75
2023/06/23 03:43:22;;;;;;;5.43;3.22;;;15.50;99.90;;;;;;4988426;28;20066;-75
2023/06/23 03:45:53;;;;;;;7.68;3.90;;;15.60;99.90;;;;;;4991915;28;20043;-74
2023/06/23 03:48:21;;;;;;;5.93;3.10;;;15.70;99.90;;;;;;4992726;28;20022;-75
2023/06/23 03:50:50;;;;;;;4.40;2.80;;;15.70;99.90;;;;;;4992093;28;20037;-74
2023/06/23 03:53:17;;;;;;;5.32;3.42;;;15.60;99.90;;;;;;4992292;28;20027;-74
2023/06/23 03:55:43;;;;;;;4.87;2.83;;;15.70;99.90;;;;;;4992247;28;20140;-74
2023/06/23 03:58:09;;;;;;;8.20;4.00;;;;;;;;;;4992162;28;20034;-75
2023/06/23 04:00:37;;;;;;;9.90;2.92;;;15.70;99.90;;;;;;4991989;28;20173;-75
2023/06/23 04:03:06;;;;;;;6.57;3.85;;;15.70;99.90;;;;;;4992069;28;20036;-74
2023/06/23 04:05:33;;;;;;;7.65;2.75;;;15.80;99.90;;;;;;4991814;28;20105;-75
2023/06/23 04:08:00;;;;;;;6.32;2.63;;;15.80;99.90;;;;;;4991780;28;20049;-75
2023/06/23 04:10:28;;;;;;;5.35;3.38;;;15.80;99.90;;;;;;4991548;28;20415;-75
2023/06/23 04:12:55;;;;;;;8.43;3.40;;;15.80;99.90;;;;;;4992032;28;20027;-74
2023/06/23 04:15:23;;;;;;;8.38;3.17;;;15.80;99.90;;;;;;4992241;28;20611;-74
2023/06/23 04:17:53;;;;;;;5.60;3.30;;;15.70;99.90;;;;;;4992297;28;20038;-74
2023/06/23 04:20:19;;;;;;;7.65;4.00;;;;;;;;;;4991870;28;20026;-74
2023/06/23 04:22:46;;;;;;;5.40;3.03;;;15.90;99.90;;;;;;4992018;28;20030;-74
2023/06/23 04:25:13;;;;;;;10.05;3.92;;;;;;;;;;4983611;28;20088;-74
2023/06/23 04:27:40;;;;;;;6.13;3.60;;;16.00;99.90;;;;;;4991758;28;20034;-75
2023/06/23 04:30:08;;;;;;;7.38;4.05;;;15.70;99.90;;;;;;4992021;28;20379;-74
2023/06/23 04:32:37;;;;;;;6.28;4.07;;;16.00;99.90;;;;;;4991634;28;20042;-74
2023/06/23 04:35:03;;;;;;;7.95;4.38;;;16.00;99.90;;;;;;4991234;28;20042;-75
2023/06/23 04:37:37;;;;;;;9.80;3.85;;;16.20;99.90;;;;;;4990243;28;20031;-74
2023/06/23 04:40:13;;;;;;;7.07;3.50;;;16.10;99.90;;;;;;4986358;28;20550;-75
2023/06/23 04:42:59;;;;;;;6.70;3.70;;;16.10;99.90;;;;;;4990995;28;20578;-74
2023/06/23 04:45:27;;;;;;;7.00;3.58;;;16.20;99.90;;;;;;5006561;28;20074;-75
2023/06/23 04:48:00;;;;;;;7.95;4.57;;;16.30;99.90;;;;;;4991014;28;20025;-74
2023/06/23 04:50:29;;;;;;;11.13;2.80;;;16.20;99.90;;;;;;4991683;28;20035;-74
2023/06/23 04:53:04;;;;;;;5.95;3.10;;;16.20;99.90;;;;;;4990922;28;20058;-74
2023/06/23 04:55:32;;;;;;;9.63;2.63;;;15.90;99.90;;;;;;4990655;28;20058;-74
2023/06/23 04:58:02;;;;;;;6.53;2.83;;;16.10;99.90;;;;;;4991155;28;20065;-74
2023/06/23 05:00:29;;;;;;;5.82;2.95;;;16.10;99.90;;;;;;4991312;28;20396;-74
2023/06/23 05:02:56;;;;;;;;;;;16.10;99.90;;;;;;4980006;28;20023;-74
2023/06/23 05:05:25;;;;;;;4.90;2.90;;;16.10;99.90;;;;;;4974161;28;19956;-74
2023/06/23 05:07:53;;;;;;;8.45;3.88;;;16.20;99.90;;;;;;4983195;28;20034;-75
2023/06/23 05:10:20;;;;;;;5.68;3.17;;;16.20;99.90;;;;;;4987815;28;20046;-74
2023/06/23 05:12:52;;;;;;;6.17;2.97;;;16.30;99.90;;;;;;4990103;28;20050;-74
2023/06/23 05:15:19;;;;;;;11.77;3.08;;;16.40;99.90;;;;;;4987294;28;20710;-74
2023/06/23 05:17:53;;;;;;;4.30;2.70;;;16.60;99.90;;;;;;4990134;28;20022;-74
2023/06/23 05:20:20;;;;;;;7.63;2.58;;;16.80;99.90;;;;;;4977760;28;20038;-73
2023/06/23 05:22:48;;;;;;;;;;;16.90;99.90;;;;;;4976383;28;20094;-73
2023/06/23 05:25:16;;;;;;;8.35;3.42;;;17.20;99.90;;;;;;4983722;28;20000;-73
2023/06/23 05:27:45;;;;;;;5.72;3.38;;;17.30;99.90;;;;;;4988031;28;20026;-73
2023/06/23 05:30:15;;;;;;;5.30;2.95;;;17.20;99.90;;;;;;4981888;28;20030;-73
2023/06/23 05:32:42;;;;;;;8.10;2.50;;;17.10;99.90;;;;;;4983914;28;20047;-74
2023/06/23 05:35:10;;;;;;;6.50;3.03;;;17.10;99.90;;;;;;4981213;28;20042;-73
2023/06/23 05:37:38;;;;;;;4.93;3.40;;;17.40;99.90;;;;;;4985055;28;20027;-81
2023/06/23 05:40:06;;;;;;;5.63;3.17;;;17.50;99.90;;;;;;4976333;28;20084;-76
2023/06/23 05:42:32;;;;;;;5.50;3.45;;;;;;;;;;4986372;28;20463;-77
2023/06/23 05:45:00;;;;;;;5.13;2.97;;;17.50;99.90;;;;;;4982675;28;20053;-75
2023/06/23 05:47:34;;;;;;;5.43;3.28;;;17.60;99.90;;;;;;4991596;28;20484;-73
2023/06/23 05:50:01;;;;;;;8.63;2.95;;;17.70;99.90;;;;;;4992834;28;20434;-74
2023/06/23 05:52:29;;;;;;;6.45;2.83;;;17.60;99.90;;;;;;4992346;28;20080;-73
2023/06/23 05:54:57;;;;;;;5.82;3.47;;;17.30;99.90;;;;;;5002062;28;20026;-74
2023/06/23 05:57:23;;;;;;;8.80;3.13;;;;;;;;;;4997492;28;20096;-74
2023/06/23 06:00:05;;;;;;;6.97;2.92;;;17.60;99.90;;;;;;4997297;28;20022;-74
2023/06/23 06:02:33;;;;;;;5.63;2.80;;;17.60;99.90;;;;;;5008563;28;20029;-74
2023/06/23 06:05:00;;;;;;;5.07;2.78;;;17.70;99.90;;;;;;5007475;28;20529;-73
2023/06/23 06:07:27;;;;;;;6.60;3.80;;;17.70;99.90;;;;;;5007713;28;20113;-74
2023/06/23 06:09:55;;;;;;;7.00;3.42;;;18.00;99.90;;;;;;4996853;28;20277;-73
2023/06/23 06:12:24;;;;;;;5.65;3.58;;;18.60;99.90;;;;;;5007669;28;20065;-74
2023/06/23 06:14:50;;;;;;;7.03;3.25;;;;;;;;;;5008316;28;20116;-74
2023/06/23 06:17:17;;;;;;;5.50;3.58;;;19.70;99.90;;;;;;5007415;28;20049;-73
2023/06/23 06:19:45;;;;;;;5.20;3.17;;;19.80;99.90;;;;;;5001520;28;20031;-72
2023/06/23 06:22:13;;;;;;;6.85;3.67;;;19.70;99.90;;;;;;5005069;28;20546;-71
2023/06/23 06:24:40;;;;;;;5.35;2.63;;;19.50;99.90;;;;;;5008163;28;20176;-71
2023/06/23 06:27:08;;;;;;;7.18;3.17;;;19.30;99.90;;;;;;5007627;28;20033;-71
2023/06/23 06:29:36;;;;;;;7.68;4.07;;;19.00;99.90;;;;;;5007532;28;20064;-71
2023/06/23 06:32:04;;;;;;;5.72;3.38;;;18.80;99.90;;;;;;5000130;28;20517;-75
2023/06/23 06:34:31;;;;;;;6.47;2.97;;;14.60;99.90;;;;;;4994429;28;20050;-75
2023/06/23 06:37:03;;;;;;;6.35;3.25;;;18.60;99.90;;;;;;4996126;28;20042;-76
2023/06/23 06:39:30;;;;;;;5.25;2.78;;;18.40;99.90;;;;;;5007145;28;20032;-75
2023/06/23 06:41:59;;;;;;;5.55;4.13;;;18.60;99.90;;;;;;5008200;28;20030;-74
2023/06/23 06:44:25;;;;;;;6.10;3.30;;;;;;;;;;5007516;28;20112;-74
2023/06/23 06:46:52;;;;;;;9.25;3.45;;;19.20;99.90;;;;;;5001978;28;20085;-74
2023/06/23 06:49:21;;;;;;;13.75;2.85;;;19.30;99.90;;;;;;5007493;28;20033;-74
2023/06/23 06:51:49;;;;;;;5.55;2.92;;;20.10;99.90;;;;;;5003225;28;20792;-74
2023/06/23 06:54:18;;;;;;;8.00;2.70;;;21.30;99.90;;;;;;5005412;28;20581;-74
2023/06/23 06:56:44;;;;;;;7.10;2.72;;;21.60;99.90;;;;;;4999217;28;20406;-74
2023/06/23 06:59:10;;;;;;;4.55;3.13;;;;;;;;;;5007908;28;20099;-75
2023/06/23 07:01:38;;;;;;;3.75;2.67;;;28.20;99.90;;;;;;5008601;28;20105;-74
2023/06/23 07:04:05;;;;;;;3.97;2.22;;;31.60;82.70;;;;;;5007735;28;20025;-75
2023/06/23 07:06:31;;;;;;;2.53;1.90;;;35.10;66.80;;;;;;5007919;28;20030;-75
2023/06/23 07:08:57;;;;;;;2.90;1.77;;;;;;;;;;5006308;28;20034;-75
2023/06/23 07:11:22;;;;;;;4.15;2.40;;;39.70;52.80;;;;;;5015453;28;20034;-76
2023/06/23 07:13:48;;;;;;;4.30;2.40;;;;;;;;;;5005620;28;20033;-76
2023/06/23 07:16:14;;;;;;;3.25;2.08;;;42.60;48.10;;;;;;4999973;28;20100;-75
2023/06/23 07:18:40;;;;;;;3.08;1.73;;;;;;;;;;5007856;28;20483;-75
2023/06/23 07:21:06;;;;;;;2.92;2.30;;;;;;;;;;5011688;28;20072;-75
2023/06/23 07:23:32;;;;;;;2.80;1.70;;;46.50;42.80;;;;;;5010980;28;20037;-76
2023/06/23 07:26:00;;;;;;;;;;;46.50;40.40;;;;;;5012816;28;20045;-76
2023/06/23 07:28:26;;;;;;;2.28;1.70;;;;;;;;;;5011736;28;19909;-76
2023/06/23 07:30:52;;;;;;;7.57;3.17;;;;;;;;;;5007608;28;20565;-75
2023/06/23 07:33:18;;;;;;;3.20;2.15;;;49.60;38.20;;;;;;5010786;28;20071;-75
2023/06/23 07:35:43;;;;;;;3.70;2.50;;;50.40;36.50;;;;;;5011892;28;20025;-75
2023/06/23 07:38:09;;;;;;;2.53;2.05;;;;;;;;;;5010428;28;20474;-76
2023/06/23 07:40:35;;;;;;;5.18;2.38;;;;;;;;;;5011171;28;20033;-76
2023/06/23 07:43:01;;;;;;;3.83;2.17;;;50.80;34.80;;;;;;5011299;28;20026;-76
2023/06/23 07:45:26;;;;;;;2.88;2.13;;;52.00;35.30;;;;;;5026653;28;20117;-76
2023/06/23 07:47:52;;;;;;;7.50;2.13;;;;;;;;;;5010994;28;20037;-76
2023/06/23 07:50:18;;;;;;;3.47;2.03;;;;;;;;;;5013135;28;20466;-77
2023/06/23 07:52:54;;;;;;;5.22;1.83;;;46.00;38.40;;;;;;5011337;28;20041;-76
2023/06/23 07:55:20;;;;;;;2.75;1.63;;;41.10;42.30;;;;;;5011082;28;20037;-75
2023/06/23 07:57:46;;;;;;;6.22;2.25;;;38.80;45.90;;;;;;5011114;28;20057;-75
2023/06/23 08:00:13;;;;;;;3.75;2.08;;;36.40;46.60;;;;;;5010866;28;20495;-74
2023/06/23 08:02:38;;;;;;;;;;;36.30;45.10;;;;;;4998551;28;20395;-75
2023/06/23 08:05:04;;;;;;;3.45;2.20;;;40.40;47.30;;;;;;5005618;28;19909;-76
2023/06/23 08:07:30;;;;;;;3.75;2.25;;;44.70;41.80;;;;;;5010446;28;20049;-75
2023/06/23 08:09:56;;;;;;;2.80;1.90;;;;;;;;;;5011049;28;20494;-76
2023/06/23 08:12:22;;;;;;;4.00;2.03;;;;;;;;;;5011020;28;20026;-76
2023/06/23 08:14:47;;;;;;;2.83;2.00;;;;;;;;;;5011171;28;20022;-76
2023/06/23 08:17:13;;;;;;;3.05;1.60;;;;;;;;;;5010990;28;20048;-76
2023/06/23 08:19:41;;;;;;;3.95;2.00;;;;;;;;;;5006642;28;20080;-76
2023/06/23 08:22:07;;;;;;;3.42;1.75;;;;;;;;;;5003186;28;20037;-77
2023/06/23 08:24:33;;;;;;;5.50;1.50;;;;;;;;;;5009097;28;20057;-76
2023/06/23 08:26:59;;;;;;;2.97;1.77;;;;;;;;;;5010753;28;20061;-76
2023/06/23 08:29:25;;;;;;;2.45;1.60;;;;;;;;;;5010474;28;20053;-76
2023/06/23 08:31:51;;;;;;;4.47;1.75;;;;;;;;;;5009639;28;20061;-77
2023/06/23 08:34:18;;;;;;;5.75;2.40;;;;;;;;;;5009389;28;20535;-77
2023/06/23 08:36:44;;;;;;;4.10;2.13;;;;;;;;;;5003081;28;20072;-77
2023/06/23 08:39:10;;;;;;;2.75;1.77;;;;;;;;;;5010075;28;20022;-75
2023/06/23 08:41:41;;;;;;;3.60;1.88;;;42.90;42.00;;;;;;5010291;28;20014;-75
2023/06/23 08:44:14;;;;;;;3.45;1.42;;;47.50;37.30;;;;;;5004128;28;20038;-80
2023/06/23 08:46:41;;;;;;;2.80;1.63;;;50.80;34.30;;;;;;4998764;28;20052;-80
2023/06/23 08:49:13;;;;;;;5.00;1.42;;;49.00;31.90;;;;;;5009617;28;20033;-80
2023/06/23 08:51:39;;;;;;;3.00;1.55;;;51.20;32.80;;;;;;5010618;28;20118;-80
2023/06/23 08:54:05;;;;;;;2.33;1.65;;;;;;;;;;5010210;28;20071;-78
2023/06/23 08:56:32;;;;;;;2.38;1.25;;;54.70;29.70;;;;;;5010274;28;20120;-79
2023/06/23 08:58:58;;;;;;;2.25;1.35;;;;;;;;;;5010728;28;20036;-79
2023/06/23 09:01:24;;;;;;;2.00;1.38;;;;;;;;;;5009895;28;20173;-79
2023/06/23 09:03:50;;;;;;;1.70;1.58;;;55.10;28.00;;;;;;5009700;28;20026;-79
2023/06/23 09:06:16;;;;;;;4.22;1.25;;;;;;;;;;5008058;28;20030;-79
2023/06/23 09:08:42;;;;;;;2.40;1.52;;;;;;;;;;5004493;28;20037;-79
2023/06/23 09:11:08;;;;;;;2.00;1.63;;;;;;;;;;5007692;28;20506;-79
2023/06/23 09:13:36;;;;;;;3.63;1.40;;;53.00;28.30;;;;;;5005439;28;20030;-80
2023/06/23 09:16:02;;;;;;;2.03;1.13;;;53.40;27.70;;;;;;5010264;28;20057;-79
2023/06/23 09:18:33;;;;;;;2.15;1.40;;;54.30;27.10;;;;;;5009689;28;20014;-79
2023/06/23 09:21:01;;;;;;;1.60;1.08;;;48.50;28.10;;;;;;5008213;28;20026;-79
2023/06/23 09:23:26;;;;;;;1.90;1.40;;;;;;;;;;5009302;28;20022;-78
2023/06/23 09:25:54;;;;;;;1.67;1.17;;;52.60;27.50;;;;;;5008192;28;20487;-81
2023/06/23 09:28:40;;;;;;;2.10;1.15;;;54.70;26.40;;;;;;5002917;28;20033;-79
2023/06/23 09:31:16;;;;;;;1.83;1.45;;;55.70;25.30;;;;;;5009377;28;20073;-79
2023/06/23 09:33:52;;;;;;;3.63;1.15;;;56.90;25.40;;;;;;5009270;28;20050;-79
2023/06/23 09:36:18;;;;;;;1.45;1.08;;;;;;;;;;5007952;28;20411;-79
2023/06/23 09:38:44;;;;;;;1.35;1.00;;;50.80;29.00;;;;;;4999008;28;20030;-78
2023/06/23 09:41:11;;;;;;;4.75;1.15;;;50.60;26.30;;;;;;5011389;28;20026;-78
2023/06/23 09:43:45;;;;;;;1.48;1.13;;;49.60;25.90;;;;;;5008856;28;20018;-77
2023/06/23 09:46:15;;;;;;;3.25;1.80;;;47.20;27.80;;;;;;5007508;28;20029;-78
2023/06/23 09:48:43;;;;;;;1.75;1.45;;;50.30;26.80;;;;;;5009408;28;20037;-78
2023/06/23 09:51:11;;;;;;;3.10;1.40;;;;;;;;;;5008734;28;20029;-79
2023/06/23 09:53:38;;;;;;;2.17;1.35;;;52.90;25.40;;;;;;5008813;28;20542;-79
2023/06/23 09:56:04;;;;;;;4.10;1.33;;;52.70;26.20;;;;;;5009193;28;20411;-79
2023/06/23 09:58:32;;;;;;;2.03;1.20;;;;;;;;;;5009133;28;20021;-78
2023/06/23 10:01:02;;;;;;;9.70;1.40;;;52.70;25.10;;;;;;5008315;28;20030;-79
2023/06/23 10:03:29;;;;;;;2.25;1.33;;;54.00;26.00;;;;;;5008927;28;20022;-78
2023/06/23 10:05:59;;;;;;;1.38;1.25;;;55.60;24.00;;;;;;5009435;28;20034;-81
2023/06/23 10:08:28;;;;;;;1.77;0.93;;;;;;;;;;5007781;28;20018;-79
2023/06/23 10:10:54;;;;;;;3.22;0.85;;;56.70;24.50;;;;;;5001017;28;20026;-78
2023/06/23 10:13:21;;;;;;;2.42;1.35;;;56.50;23.00;;;;;;5009023;28;20020;-82
2023/06/23 10:15:47;;;;;;;1.80;1.00;;;;;;;;;;5007084;28;20076;-81
2023/06/23 10:18:13;;;;;;;1.85;1.30;;;;;;;;;;4999698;28;20018;-82
2023/06/23 10:20:40;;;;;;;2.15;0.95;;;;;;;;;;5008529;28;20098;-82
2023/06/23 10:23:06;;;;;;;1.67;1.08;;;;;;;;;;5008496;28;20033;-82
2023/06/23 10:25:38;;;;;;;3.15;1.00;;;44.40;25.80;;;;;;5002209;28;20022;-82
2023/06/23 10:28:10;;;;;;;4.60;1.02;;;40.30;27.70;;;;;;5003688;28;20030;-81
2023/06/23 10:30:36;;;;;;;2.95;1.13;;;;;;;;;;4999591;28;20112;-81
2023/06/23 10:33:03;;;;;;;1.42;1.05;;;38.30;29.20;;;;;;5000607;28;20112;-81
2023/06/23 10:35:30;;;;;;;1.50;0.82;;;36.00;30.50;;;;;;4996721;28;20018;-81
2023/06/23 10:38:04;;;;;;;2.90;0.88;;;34.10;32.20;;;;;;5003216;28;20073;-82
2023/06/23 10:40:38;;;;;;;1.70;0.85;;;34.80;31.80;;;;;;5000488;28;20081;-81
2023/06/23 10:43:06;;;;;;;3.20;1.40;;;38.20;31.00;;;;;;5006782;28;20037;-81
2023/06/23 10:45:32;;;;;;;1.90;0.93;;;;;;;;;;5008148;28;20025;-82
2023/06/23 10:47:58;;;;;;;2.70;0.82;;;;;;;;;;5009176;28;20033;-81
2023/06/23 10:50:29;;;;;;;4.60;1.08;;;45.30;25.00;;;;;;5003898;28;20034;-82
2023/06/23 10:52:56;;;;;;;1.88;1.15;;;;;;;;;;5008149;28;20053;-82
2023/06/23 10:55:41;;;;;;;4.15;1.05;;;40.40;28.30;;;;;;5001231;28;20080;-82
2023/06/23 10:58:25;;;;;;;2.17;1.13;;;38.30;29.10;;;;;;5003736;28;20038;-82
2023/06/23 11:00:54;;;;;;;2.50;1.20;;;35.90;31.50;;;;;;5008063;28;20021;-81
2023/06/23 11:03:36;;;;;;;5.20;1.40;;;33.90;41.40;;;;;;5008319;28;20096;-80
2023/06/23 11:06:07;;;;;;;4.20;1.73;;;32.10;34.50;;;;;;5001928;28;20026;-82
2023/06/23 11:08:35;;;;;;;5.38;1.52;;;30.90;38.10;;;;;;5007896;28;20101;-80
2023/06/23 11:11:06;;;;;;;4.38;1.52;;;29.80;41.40;;;;;;5008334;28;20101;-81
2023/06/23 11:13:38;;;;;;;2.92;1.50;;;33.00;40.30;;;;;;5008017;28;20708;-81
2023/06/23 11:16:05;;;;;;;2.33;1.48;;;33.90;34.80;;;;;;5007876;28;20038;-81
2023/06/23 11:18:30;;;;;;;2.05;1.40;;;38.50;36.30;;;;;;5007996;28;20017;-82
2023/06/23 11:21:15;;;;;;;3.67;1.20;;;38.40;31.20;;;;;;5009840;28;20042;-81
2023/06/23 11:24:10;;;;;;;3.95;1.33;;;37.70;37.10;;;;;;5007732;28;20014;-81
2023/06/23 11:26:37;;;;;;;6.25;1.23;;;35.90;34.60;;;;;;5004381;28;20030;-82
2023/06/23 11:29:12;;;;;;;2.42;1.27;;;33.80;33.70;;;;;;5007811;28;20040;-82
2023/06/23 11:32:12;;;;;;;3.97;1.80;;;33.40;35.80;;;;;;5007444;28;20022;-81
2023/06/23 11:34:54;;;;;;;1.90;1.25;;;37.50;34.90;;;;;;5005960;28;20058;-81
2023/06/23 11:37:21;;;;;;;4.18;1.30;;;36.60;34.40;;;;;;5006583;28;20038;-82
2023/06/23 11:39:48;;;;;;;3.10;1.55;;;;;;;;;;5007361;28;20037;-82
2023/06/23 11:42:14;;;;;;;1.60;0.90;;;;;;;;;;5007567;28;20840;-82
2023/06/23 11:44:40;;;;;;;2.78;1.27;;;;;;;;;;4999192;28;20029;-80
2023/06/23 11:47:06;;;;;;;2.73;1.70;;;;;;;;;;5006370;28;20471;-79
2023/06/23 11:49:32;;;;;;;1.55;1.05;;;;;;;;;;5006145;28;20102;-79
2023/06/23 11:52:02;;;;;;;2.92;1.13;;;39.70;29.50;;;;;;5007475;28;20438;-79
2023/06/23 11:54:35;;;;;;;3.67;1.17;;;41.30;28.30;;;;;;5005770;28;20376;-79
2023/06/23 11:57:02;;;;;;;2.58;1.27;;;39.30;28.40;;;;;;5007562;28;20046;-76
2023/06/23 11:59:36;;;;;;;1.92;1.20;;;38.30;30.80;;;;;;5006943;28;20484;-76
2023/06/23 12:02:03;;;;;;;2.80;0.93;;;37.30;29.50;;;;;;5007618;28;20030;-79
2023/06/23 12:04:33;;;;;;;2.05;1.20;;;35.10;39.90;;;;;;5007405;28;20018;-78
2023/06/23 12:06:59;;;;;;;3.03;1.42;;;33.30;42.20;;;;;;5010433;28;20105;-77
2023/06/23 12:09:26;;;;;;;3.78;1.58;;;;;;;;;;5011162;28;20030;-78
2023/06/23 12:11:52;;;;;;;1.77;1.00;;;31.90;34.90;;;;;;5010043;28;20121;-79
2023/06/23 12:14:18;;;;;;;3.45;1.70;;;;;;;;;;5011066;28;20034;-79
2023/06/23 12:16:44;;;;;;;2.37;1.50;;;;;;;;;;5011098;28;20073;-79
2023/06/23 12:19:10;;;;;;;3.53;2.10;;;29.30;43.60;;;;;;5011317;28;20025;-78
2023/06/23 12:21:39;;;;;;;1.60;1.20;;;28.80;39.10;;;;;;5010332;28;20434;-78
2023/06/23 12:24:09;;;;;;;6.47;1.23;;;28.60;39.60;;;;;;5011042;28;20057;-79
2023/06/23 12:26:41;;;;;;;2.90;1.23;;;28.50;40.10;;;;;;5000481;28;20134;-78
2023/06/23 12:29:08;;;;;;;3.80;1.40;;;28.60;40.90;;;;;;5010625;28;20034;-78
2023/06/23 12:31:34;;;;;;;2.92;1.50;;;27.80;51.10;;;;;;5010766;28;20018;-78
2023/06/23 12:34:01;;;;;;;3.90;1.73;;;27.70;41.10;;;;;;5010518;28;20084;-79
2023/06/23 12:36:27;;;;;;;2.97;1.50;;;;;;;;;;5007526;28;20030;-77
2023/06/23 12:38:55;;;;;;;2.75;1.20;;;28.10;52.20;;;;;;5004683;28;20037;-78
2023/06/23 12:41:27;;;;;;;6.00;1.20;;;28.20;42.10;;;;;;5007988;28;20029;-79
2023/06/23 12:43:54;;;;;;;6.30;2.08;;;28.60;41.50;;;;;;5002671;28;20025;-79
2023/06/23 12:46:23;;;;;;;;;;;28.60;41.90;;;;;;5010757;28;20553;-79
2023/06/23 12:48:50;;;;;;;3.60;1.30;;;;;;;;;;5010326;28;19913;-79
2023/06/23 12:51:16;;;;;;;2.55;1.42;;;;;;;;;;5012206;28;20430;-79
2023/06/23 12:53:42;;;;;;;3.30;1.73;;;;;;;;;;4994909;28;20035;-78
2023/06/23 12:56:08;;;;;;;1.77;1.20;;;;;;;;;;5009822;28;20411;-78
2023/06/23 12:58:34;;;;;;;2.17;1.33;;;27.90;51.80;;;;;;5009953;28;20045;-78
2023/06/23 13:01:02;;;;;;;3.03;1.60;;;;;;;;;;5010170;28;20069;-77
2023/06/23 13:03:28;;;;;;;2.05;1.30;;;;;;;;;;5009774;28;20046;-78
2023/06/23 13:05:55;;;;;;;3.60;1.42;;;28.70;40.40;;;;;;5009961;28;20057;-78
2023/06/23 13:08:21;;;;;;;3.10;1.40;;;;;;;;;;5009953;28;20033;-78
2023/06/23 13:10:47;;;;;;;5.90;1.55;;;;;;;;;;5010055;28;20054;-77
2023/06/23 13:13:13;;;;;;;1.63;1.02;;;;;;;;;;5009692;28;20129;-78
2023/06/23 13:15:39;;;;;;;2.87;1.50;;;;;;;;;;5009374;28;20402;-78
2023/06/23 13:18:05;;;;;;;3.40;1.23;;;;;;;;;;5006065;28;20629;-77
2023/06/23 13:20:31;;;;;;;2.43;1.50;;;;;;;;;;5009342;28;20084;-77
2023/06/23 13:22:57;;;;;;;3.80;1.80;;;;;;;;;;5009636;28;20034;-78
2023/06/23 13:25:23;;;;;;;2.80;1.30;;;;;;;;;;5009749;28;20018;-79
2023/06/23 13:27:49;;;;;;;2.95;1.15;;;;;;;;;;5009637;28;20024;-77